createdAt,value
2019-02-16T00:01:42.685Z,101706.00
2019-02-16T00:04:10.350Z,101705.97
2019-02-16T00:06:38.006Z,101701.14
2019-02-16T00:09:05.671Z,101699.47
2019-02-16T00:11:33.325Z,101704.37
2019-02-16T00:14:00.979Z,101695.07
2019-02-16T00:16:28.714Z,101695.61
2019-02-16T00:18:56.387Z,101699.05
2019-02-16T00:21:24.042Z,101702.67
2019-02-16T00:23:51.698Z,101699.05
2019-02-16T00:26:19.364Z,101697.56
2019-02-16T00:28:47.043Z,101693.02
2019-02-16T00:31:14.758Z,101698.73
2019-02-16T00:33:42.413Z,101690.83
2019-02-16T00:36:10.073Z,101694.06
2019-02-16T00:38:37.718Z,101688.98
2019-02-16T00:41:05.383Z,101688.50
2019-02-16T00:43:33.030Z,101686.23
2019-02-16T00:46:00.685Z,101680.70
2019-02-16T00:48:28.341Z,101678.89
2019-02-16T00:50:56.002Z,101672.16
2019-02-16T00:53:23.668Z,101674.61
2019-02-16T00:55:51.326Z,101671.47
2019-02-16T00:58:19.063Z,101664.78
2019-02-16T01:00:46.717Z,101669.60
2019-02-16T01:03:14.364Z,101668.98
2019-02-16T01:05:42.024Z,101661.82
2019-02-16T01:08:09.674Z,101665.38
2019-02-16T01:10:37.337Z,101671.36
2019-02-16T01:13:04.997Z,101662.34
2019-02-16T01:15:32.648Z,101656.64
2019-02-16T01:18:00.306Z,101656.89
2019-02-16T01:20:27.966Z,101648.09
2019-02-16T01:22:55.623Z,101642.05
2019-02-16T01:25:23.279Z,101637.33
2019-02-16T01:27:50.943Z,101641.77
2019-02-16T01:30:18.605Z,101637.11
2019-02-16T01:32:46.269Z,101636.75
2019-02-16T01:35:13.927Z,101630.44
2019-02-16T01:37:41.587Z,101625.66
2019-02-16T01:40:09.237Z,101617.13
2019-02-16T01:42:36.886Z,101621.58
2019-02-16T01:45:04.551Z,101619.41
2019-02-16T01:47:32.205Z,101615.27
2019-02-16T01:49:59.868Z,101611.30
2019-02-16T01:52:27.514Z,101608.73
2019-02-16T01:54:55.171Z,101613.14
2019-02-16T01:57:22.824Z,101611.98
2019-02-16T01:59:50.601Z,101601.97
2019-02-16T02:02:18.317Z,101599.37
2019-02-16T02:04:45.996Z,101599.73
2019-02-16T02:07:13.649Z,101595.45
2019-02-16T02:09:41.300Z,101591.38
2019-02-16T02:12:09.337Z,101581.19
2019-02-16T02:14:36.994Z,101592.38
2019-02-16T02:17:04.846Z,101592.52
2019-02-16T02:19:32.578Z,101580.09
2019-02-16T02:22:00.237Z,101580.77
2019-02-16T02:24:27.886Z,101577.85
2019-02-16T02:26:55.545Z,101577.09
2019-02-16T02:29:23.209Z,101577.59
2019-02-16T02:31:50.904Z,101577.17
2019-02-16T02:34:18.560Z,101568.90
2019-02-16T02:36:46.214Z,101571.78
2019-02-16T02:39:13.866Z,101573.51
2019-02-16T02:41:41.526Z,101586.64
2019-02-16T02:44:09.182Z,101575.63
2019-02-16T02:46:36.850Z,101570.16
2019-02-16T02:49:04.508Z,101575.79
2019-02-16T02:51:32.148Z,101581.03
2019-02-16T02:53:59.819Z,101579.66
2019-02-16T02:56:27.465Z,101567.19
2019-02-16T02:58:55.118Z,101571.17
2019-02-16T03:01:22.781Z,101565.44
2019-02-16T03:03:50.434Z,101561.90
2019-02-16T03:06:18.095Z,101565.48
2019-02-16T03:08:45.757Z,101559.13
2019-02-16T03:11:13.414Z,101552.53
2019-02-16T03:13:41.070Z,101556.75
2019-02-16T03:16:08.734Z,101559.71
2019-02-16T03:18:36.391Z,101557.95
2019-02-16T03:21:04.060Z,101552.53
2019-02-16T03:23:31.730Z,101558.86
2019-02-16T03:25:59.393Z,101553.45
2019-02-16T03:28:27.049Z,101555.16
2019-02-16T03:30:54.743Z,101555.59
2019-02-16T03:33:22.395Z,101560.61
2019-02-16T03:35:50.049Z,101564.23
2019-02-16T03:38:17.706Z,101558.52
2019-02-16T03:40:45.370Z,101562.94
2019-02-16T03:43:13.033Z,101563.42
2019-02-16T03:45:40.681Z,101561.13
2019-02-16T03:48:08.341Z,101553.02
2019-02-16T03:50:35.992Z,101547.36
2019-02-16T03:53:03.658Z,101545.69
2019-02-16T03:55:31.317Z,101537.18
2019-02-16T03:57:58.990Z,101538.45
2019-02-16T04:00:26.648Z,101539.09
2019-02-16T04:02:54.313Z,101536.66
2019-02-16T04:05:21.982Z,101529.55
2019-02-16T04:07:49.642Z,101526.59
2019-02-16T04:10:17.303Z,101532.66
2019-02-16T04:12:44.963Z,101530.86
2019-02-16T04:15:12.621Z,101531.20
2019-02-16T04:17:40.339Z,101526.55
2019-02-16T04:20:07.997Z,101530.20
2019-02-16T04:22:35.658Z,101528.30
2019-02-16T04:25:03.335Z,101527.81
2019-02-16T04:27:31.070Z,101526.96
2019-02-16T04:29:58.718Z,101525.11
2019-02-16T04:32:26.383Z,101526.03
2019-02-16T04:34:54.036Z,101527.39
2019-02-16T04:37:21.731Z,101529.05
2019-02-16T04:39:49.383Z,101528.45
2019-02-16T04:42:17.050Z,101526.13
2019-02-16T04:44:44.710Z,101517.92
2019-02-16T04:47:12.368Z,101510.20
2019-02-16T04:49:40.035Z,101510.20
2019-02-16T04:52:07.695Z,101512.66
2019-02-16T04:54:35.353Z,101512.23
2019-02-16T04:57:03.019Z,101519.18
2019-02-16T04:59:30.686Z,101512.83
2019-02-16T05:01:58.344Z,101506.62
2019-02-16T05:04:25.998Z,101506.30
2019-02-16T05:06:53.663Z,101498.25
2019-02-16T05:09:21.338Z,101492.52
2019-02-16T05:11:48.990Z,101491.37
2019-02-16T05:14:16.659Z,101491.30
2019-02-16T05:16:44.315Z,101495.48
2019-02-16T05:19:11.985Z,101491.14
2019-02-16T05:21:39.637Z,101494.85
2019-02-16T05:24:07.338Z,101493.13
2019-02-16T05:26:35.006Z,101491.08
2019-02-16T05:29:02.673Z,101491.08
2019-02-16T05:31:30.329Z,101488.03
2019-02-16T05:33:57.995Z,101488.83
2019-02-16T05:36:25.654Z,101487.22
2019-02-16T05:38:53.325Z,101491.36
2019-02-16T05:41:20.988Z,101487.39
2019-02-16T05:43:48.646Z,101495.02
2019-02-16T05:46:16.309Z,101486.08
2019-02-16T05:48:43.967Z,101484.67
2019-02-16T05:51:11.650Z,101490.31
2019-02-16T05:53:39.381Z,101485.69
2019-02-16T05:56:07.054Z,101495.55
2019-02-16T05:58:34.718Z,101485.86
2019-02-16T06:01:02.379Z,101493.39
2019-02-16T06:03:30.041Z,101492.13
2019-02-16T06:05:57.710Z,101494.41
2019-02-16T06:08:25.384Z,101493.36
2019-02-16T06:10:53.050Z,101500.05
2019-02-16T06:13:20.706Z,101495.59
2019-02-16T06:15:48.372Z,101495.75
2019-02-16T06:18:16.025Z,101491.15
2019-02-16T06:20:43.697Z,101488.91
2019-02-16T06:23:11.351Z,101491.15
2019-02-16T06:25:39.031Z,101490.17
2019-02-16T06:28:06.677Z,101492.83
2019-02-16T06:30:34.341Z,101493.80
2019-02-16T06:33:02.022Z,101488.79
2019-02-16T06:35:38.132Z,101493.62
2019-02-16T06:38:05.796Z,101490.63
2019-02-16T06:40:33.461Z,101488.31
2019-02-16T06:43:01.117Z,101492.49
2019-02-16T06:45:28.786Z,101489.95
2019-02-16T06:47:56.450Z,101486.84
2019-02-16T06:50:24.114Z,101491.92
2019-02-16T06:52:51.775Z,101489.72
2019-02-16T06:55:19.436Z,101488.22
2019-02-16T06:57:49.754Z,101486.59
2019-02-16T07:00:19.785Z,101486.23
2019-02-16T07:02:47.440Z,101486.70
2019-02-16T07:05:15.108Z,101495.39
2019-02-16T07:07:42.768Z,101500.61
2019-02-16T07:10:10.422Z,101494.13
2019-02-16T07:12:38.080Z,101496.33
2019-02-16T07:15:05.768Z,101494.57
2019-02-16T07:17:41.260Z,101497.09
2019-02-16T07:20:09.374Z,101496.30
2019-02-16T07:22:37.111Z,101493.25
2019-02-16T07:25:04.767Z,101494.55
2019-02-16T07:27:32.420Z,101489.47
2019-02-16T07:30:00.186Z,101489.88
2019-02-16T07:32:27.838Z,101491.02
2019-02-16T07:34:55.492Z,101494.58
2019-02-16T07:37:23.157Z,101487.66
2019-02-16T07:39:50.816Z,101486.87
2019-02-16T07:42:18.470Z,101493.09
2019-02-16T07:44:54.354Z,101489.59
2019-02-16T07:47:28.601Z,101482.76
2019-02-16T07:50:04.048Z,101482.80
2019-02-16T07:52:39.694Z,101484.04
2019-02-16T07:55:13.405Z,101480.84
2019-02-16T07:57:48.240Z,101476.39
2019-02-16T08:00:21.829Z,101480.42
2019-02-16T08:02:56.454Z,101479.83
2019-02-16T08:05:29.316Z,101475.63
2019-02-16T08:08:03.726Z,101474.47
2019-02-16T08:10:38.593Z,101476.37
2019-02-16T08:13:12.835Z,101477.56
2019-02-16T08:15:53.419Z,101480.52
2019-02-16T08:18:28.509Z,101478.23
2019-02-16T08:21:03.775Z,101478.66
2019-02-16T08:23:51.445Z,101475.44
2019-02-16T08:26:30.735Z,101471.61
2019-02-16T08:29:05.440Z,101462.15
2019-02-16T08:31:39.766Z,101464.20
2019-02-16T08:34:16.241Z,101463.98
2019-02-16T08:36:50.658Z,101467.98
2019-02-16T08:39:24.762Z,101468.69
2019-02-16T08:42:06.166Z,101464.92
2019-02-16T08:44:43.548Z,101464.19
2019-02-16T08:47:21.448Z,101463.10
2019-02-16T08:49:59.752Z,101459.90
2019-02-16T08:52:51.434Z,101465.92
2019-02-16T08:55:31.849Z,101459.98
2019-02-16T08:58:19.501Z,101456.23
2019-02-16T09:00:57.072Z,101452.02
2019-02-16T09:03:34.359Z,101449.05
2019-02-16T09:06:07.368Z,101446.65
2019-02-16T09:08:50.643Z,101444.86
2019-02-16T09:11:30.218Z,101441.78
2019-02-16T09:14:03.295Z,101445.16
2019-02-16T09:16:38.390Z,101442.48
2019-02-16T09:19:19.722Z,101432.69
2019-02-16T09:21:55.281Z,101431.04
2019-02-16T09:24:28.106Z,101429.94
2019-02-16T09:27:10.737Z,101434.41
2019-02-16T09:29:44.989Z,101425.60
2019-02-16T09:32:20.938Z,101424.97
2019-02-16T09:35:03.472Z,101424.30
2019-02-16T09:37:37.708Z,101426.98
2019-02-16T09:40:16.718Z,101424.50
2019-02-16T09:42:49.996Z,101423.38
2019-02-16T09:45:26.163Z,101424.70
2019-02-16T09:48:02.008Z,101425.03
2019-02-16T09:50:34.179Z,101416.93
2019-02-16T09:53:20.678Z,101419.83
2019-02-16T09:55:57.985Z,101426.92
2019-02-16T09:58:45.570Z,101424.03
2019-02-16T10:01:28.520Z,101423.17
2019-02-16T10:04:02.955Z,101423.50
2019-02-16T10:06:42.489Z,101416.23
2019-02-16T10:09:17.227Z,101411.43
2019-02-16T10:11:51.120Z,101411.20
2019-02-16T10:14:41.803Z,101405.32
2019-02-16T10:17:17.685Z,101404.52
2019-02-16T10:20:05.421Z,101408.10
2019-02-16T10:22:45.877Z,101408.77
2019-02-16T10:25:23.782Z,101398.88
2019-02-16T10:28:01.782Z,101399.73
2019-02-16T10:30:39.802Z,101396.51
2019-02-16T10:33:18.309Z,101390.63
2019-02-16T10:35:52.533Z,101392.54
2019-02-16T10:38:28.063Z,101390.24
2019-02-16T10:41:14.771Z,101387.69
2019-02-16T10:43:49.292Z,101384.66
2019-02-16T10:46:27.522Z,101386.53
2019-02-16T10:49:03.871Z,101376.16
2019-02-16T10:51:38.298Z,101374.90
2019-02-16T10:54:13.740Z,101372.22
2019-02-16T10:56:49.294Z,101373.43
2019-02-16T10:59:22.996Z,101365.68
2019-02-16T11:02:10.543Z,101355.33
2019-02-16T11:04:43.473Z,101354.08
2019-02-16T11:07:22.005Z,101355.59
2019-02-16T11:09:54.481Z,101354.31
2019-02-16T11:12:31.716Z,101356.69
2019-02-16T11:15:09.095Z,101351.83
2019-02-16T11:17:58.723Z,101356.09
2019-02-16T11:20:34.622Z,101352.83
2019-02-16T11:23:21.328Z,101346.75
2019-02-16T11:26:02.869Z,101347.84
2019-02-16T11:28:51.630Z,101352.45
2019-02-16T11:31:26.697Z,101342.48
2019-02-16T11:34:08.801Z,101339.84
2019-02-16T11:36:47.430Z,101335.16
2019-02-16T11:39:20.437Z,101329.09
2019-02-16T11:41:59.252Z,101328.72
2019-02-16T11:44:43.542Z,101323.00
2019-02-16T11:47:21.456Z,101319.75
2019-02-16T11:49:56.009Z,101314.89
2019-02-16T11:52:37.014Z,101310.68
2019-02-16T11:55:14.895Z,101316.80
2019-02-16T11:58:05.602Z,101316.46
2019-02-16T12:00:52.374Z,101312.56
2019-02-16T12:03:29.699Z,101304.03
2019-02-16T12:06:05.763Z,101303.72
2019-02-16T12:08:50.110Z,101300.77
2019-02-16T12:11:32.262Z,101295.59
2019-02-16T12:14:05.169Z,101293.39
2019-02-16T12:16:39.980Z,101289.98
2019-02-16T12:19:13.099Z,101290.72
2019-02-16T12:21:50.712Z,101286.62
2019-02-16T12:24:37.435Z,101280.34
2019-02-16T12:27:16.560Z,101276.00
2019-02-16T12:30:01.213Z,101278.91
2019-02-16T12:32:34.142Z,101272.08
2019-02-16T12:35:14.862Z,101265.45
2019-02-16T12:38:01.574Z,101257.45
2019-02-16T12:40:34.771Z,101260.61
2019-02-16T12:43:15.560Z,101255.05
2019-02-16T12:45:51.235Z,101249.17
2019-02-16T12:48:22.554Z,101243.32
2019-02-16T12:50:59.596Z,101243.41
2019-02-16T12:53:35.475Z,101242.67
2019-02-16T12:56:11.733Z,101240.16
2019-02-16T12:58:58.450Z,101234.20
2019-02-16T13:01:33.479Z,101231.80
2019-02-16T13:04:12.509Z,101231.04
2019-02-16T13:06:49.556Z,101222.52
2019-02-16T13:09:23.647Z,101224.21
2019-02-16T13:12:02.859Z,101219.75
2019-02-16T13:14:41.293Z,101218.81
2019-02-16T13:17:19.260Z,101215.96
2019-02-16T13:19:52.327Z,101209.73
2019-02-16T13:22:26.560Z,101202.61
2019-02-16T13:25:03.550Z,101210.77
2019-02-16T13:27:43.614Z,101210.02
2019-02-16T13:30:18.325Z,101220.86
2019-02-16T13:33:08.711Z,101214.33
2019-02-16T13:35:47.714Z,101213.11
2019-02-16T13:38:30.301Z,101207.95
2019-02-16T13:41:04.063Z,101205.78
2019-02-16T13:43:43.197Z,101200.70
2019-02-16T13:46:17.727Z,101196.52
2019-02-16T13:48:51.866Z,101190.69
2019-02-16T13:51:25.550Z,101187.56
2019-02-16T13:54:02.835Z,101189.55
2019-02-16T13:56:43.513Z,101187.20
2019-02-16T13:59:18.626Z,101188.64
2019-02-16T14:01:54.592Z,101179.40
2019-02-16T14:04:29.937Z,101173.72
2019-02-16T14:07:03.730Z,101173.23
2019-02-16T14:09:44.937Z,101167.95
2019-02-16T14:12:24.144Z,101168.43
2019-02-16T14:14:57.100Z,101168.02
2019-02-16T14:17:31.766Z,101165.97
2019-02-16T14:19:59.479Z,101161.17
2019-02-16T14:22:27.204Z,101171.73
2019-02-16T14:24:57.917Z,101166.66
2019-02-16T14:27:25.595Z,101168.36
2019-02-16T14:29:53.299Z,101165.41
2019-02-16T14:32:21.046Z,101154.88
2019-02-16T14:34:48.773Z,101158.98
2019-02-16T14:37:28.805Z,101162.80
2019-02-16T14:39:56.590Z,101152.86
2019-02-16T14:42:24.250Z,101157.48
2019-02-16T14:44:51.920Z,101152.14
2019-02-16T14:47:19.573Z,101151.87
2019-02-16T14:49:47.245Z,101156.19
2019-02-16T14:52:14.914Z,101153.66
2019-02-16T14:54:42.584Z,101151.26
2019-02-16T14:57:10.262Z,101142.63
2019-02-16T14:59:37.945Z,101142.63
2019-02-16T15:02:05.622Z,101137.70
2019-02-16T15:04:33.282Z,101135.98
2019-02-16T15:07:00.958Z,101145.47
2019-02-16T15:09:28.646Z,101143.64
2019-02-16T15:11:56.373Z,101141.42
2019-02-16T15:14:24.117Z,101142.99
2019-02-16T15:16:51.795Z,101145.84
2019-02-16T15:19:19.461Z,101145.66
2019-02-16T15:21:47.142Z,101149.86
2019-02-16T15:24:14.810Z,101150.47
2019-02-16T15:26:42.488Z,101143.96
2019-02-16T15:29:10.171Z,101159.14
2019-02-16T15:31:37.830Z,101157.88
2019-02-16T15:34:05.498Z,101148.95
2019-02-16T15:36:33.266Z,101152.91
2019-02-16T15:39:00.941Z,101162.52
2019-02-16T15:41:28.626Z,101156.45
2019-02-16T15:43:56.295Z,101152.14
2019-02-16T15:46:23.964Z,101158.25
2019-02-16T15:48:51.632Z,101160.31
2019-02-16T15:51:19.397Z,101157.96
2019-02-16T15:53:47.058Z,101163.52
2019-02-16T15:56:14.735Z,101164.54
2019-02-16T15:58:42.437Z,101170.25
2019-02-16T16:01:10.202Z,101173.57
2019-02-16T16:03:37.929Z,101165.45
2019-02-16T16:06:05.587Z,101163.45
2019-02-16T16:08:38.666Z,101168.69
2019-02-16T16:11:10.662Z,101164.75
2019-02-16T16:13:50.306Z,101166.50
2019-02-16T16:16:33.321Z,101166.79
2019-02-16T16:19:09.895Z,101173.45
2019-02-16T16:21:46.263Z,101170.56
2019-02-16T16:24:23.644Z,101164.38
2019-02-16T16:27:16.331Z,101162.66
2019-02-16T16:29:49.066Z,101169.05
2019-02-16T16:32:27.816Z,101176.30
2019-02-16T16:35:03.153Z,101171.70
2019-02-16T16:37:39.309Z,101183.76
2019-02-16T16:40:18.131Z,101175.19
2019-02-16T16:42:52.550Z,101179.11
2019-02-16T16:45:34.470Z,101182.01
2019-02-16T16:48:13.278Z,101186.85
2019-02-16T16:50:54.446Z,101191.81
2019-02-16T16:53:33.076Z,101185.16
2019-02-16T16:56:28.175Z,101184.88
2019-02-16T16:58:56.155Z,101181.05
2019-02-16T17:01:31.695Z,101171.93
2019-02-16T17:04:04.523Z,101179.87
2019-02-16T17:06:40.334Z,101180.84
2019-02-16T17:09:13.731Z,101182.39
2019-02-16T17:11:55.843Z,101189.66
2019-02-16T17:14:36.904Z,101188.77
2019-02-16T17:17:13.542Z,101200.19
2019-02-16T17:19:47.906Z,101189.25
2019-02-16T17:22:20.750Z,101196.52
2019-02-16T17:24:53.665Z,101194.22
2019-02-16T17:27:29.934Z,101186.39
2019-02-16T17:30:05.070Z,101190.26
2019-02-16T17:32:39.889Z,101188.22
2019-02-16T17:35:17.498Z,101190.98
2019-02-16T17:37:50.981Z,101187.19
2019-02-16T17:40:26.237Z,101188.25
2019-02-16T17:42:59.211Z,101183.98
2019-02-16T17:45:35.501Z,101184.46
2019-02-16T17:48:16.044Z,101185.06
2019-02-16T17:50:55.518Z,101191.56
2019-02-16T17:53:37.739Z,101188.73
2019-02-16T17:56:12.009Z,101191.48
2019-02-16T17:58:49.469Z,101187.86
2019-02-16T18:01:22.478Z,101183.11
2019-02-16T18:03:55.448Z,101183.66
2019-02-16T18:06:33.069Z,101184.56
2019-02-16T18:09:12.224Z,101183.28
2019-02-16T18:11:59.921Z,101186.44
2019-02-16T18:14:36.614Z,101184.07
2019-02-16T18:17:13.997Z,101192.05
2019-02-16T18:19:48.000Z,101195.92
2019-02-16T18:22:37.594Z,101188.67
2019-02-16T18:25:28.141Z,101190.52
2019-02-16T18:28:01.003Z,101190.20
2019-02-16T18:30:38.273Z,101190.31
2019-02-16T18:33:20.944Z,101196.91
2019-02-16T18:36:02.376Z,101194.08
2019-02-16T18:38:43.762Z,101190.47
2019-02-16T18:41:25.916Z,101187.08
2019-02-16T18:44:07.741Z,101193.93
2019-02-16T18:46:54.443Z,101190.60
2019-02-16T18:49:27.469Z,101196.37
2019-02-16T18:52:03.201Z,101197.30
2019-02-16T18:54:36.306Z,101196.28
2019-02-16T18:57:09.291Z,101193.25
2019-02-16T18:59:44.229Z,101191.95
2019-02-16T19:02:25.488Z,101193.22
2019-02-16T19:04:58.586Z,101190.02
2019-02-16T19:07:36.679Z,101193.17
2019-02-16T19:10:10.690Z,101196.77
2019-02-16T19:12:43.620Z,101198.67
2019-02-16T19:15:18.329Z,101195.39
2019-02-16T19:17:53.103Z,101198.69
2019-02-16T19:20:40.004Z,101196.34
2019-02-16T19:23:17.324Z,101197.86
2019-02-16T19:26:06.956Z,101197.84
2019-02-16T19:28:47.377Z,101193.37
2019-02-16T19:31:34.077Z,101199.80
2019-02-16T19:34:10.559Z,101193.05
2019-02-16T19:36:59.262Z,101187.97
2019-02-16T19:39:34.048Z,101183.22
2019-02-16T19:42:09.591Z,101180.47
2019-02-16T19:44:51.294Z,101182.95
2019-02-16T19:47:24.050Z,101178.25
2019-02-16T19:49:59.201Z,101170.52
2019-02-16T19:52:34.550Z,101176.17
2019-02-16T19:55:12.346Z,101177.18
2019-02-16T19:57:53.518Z,101180.14
2019-02-16T20:00:41.116Z,101189.08
2019-02-16T20:03:14.126Z,101182.60
2019-02-16T20:05:57.781Z,101185.66
2019-02-16T20:08:33.629Z,101189.52
2019-02-16T20:11:06.684Z,101179.84
2019-02-16T20:13:43.802Z,101185.50
2019-02-16T20:16:20.587Z,101189.02
2019-02-16T20:19:00.118Z,101190.98
2019-02-16T20:21:37.413Z,101183.70
2019-02-16T20:24:14.391Z,101190.45
2019-02-16T20:26:54.648Z,101183.81
2019-02-16T20:29:27.948Z,101192.91
2019-02-16T20:32:05.541Z,101191.94
2019-02-16T20:34:40.983Z,101190.64
2019-02-16T20:37:16.018Z,101196.06
2019-02-16T20:39:50.847Z,101195.59
2019-02-16T20:42:24.865Z,101196.97
2019-02-16T20:45:04.114Z,101192.92
2019-02-16T20:47:39.954Z,101196.97
2019-02-16T20:50:16.626Z,101190.38
2019-02-16T20:53:05.266Z,101190.86
2019-02-16T20:55:46.978Z,101194.96
2019-02-16T20:58:23.333Z,101196.22
2019-02-16T21:00:56.797Z,101201.45
2019-02-16T21:03:29.600Z,101193.34
2019-02-16T21:06:04.755Z,101196.64
2019-02-16T21:08:43.169Z,101186.97
2019-02-16T21:11:18.815Z,101191.87
2019-02-16T21:13:51.799Z,101203.16
2019-02-16T21:16:30.117Z,101206.80
2019-02-16T21:19:07.207Z,101201.17
2019-02-16T21:21:48.885Z,101197.65
2019-02-16T21:24:31.920Z,101199.50
2019-02-16T21:27:06.435Z,101196.63
2019-02-16T21:29:53.149Z,101198.30
2019-02-16T21:32:39.181Z,101194.14
2019-02-16T21:35:14.998Z,101196.89
2019-02-16T21:37:54.029Z,101190.27
2019-02-16T21:40:43.702Z,101199.58
2019-02-16T21:43:24.387Z,101203.61
2019-02-16T21:46:02.692Z,101204.56
2019-02-16T21:48:39.055Z,101203.46
2019-02-16T21:51:17.360Z,101199.70
2019-02-16T21:53:55.265Z,101196.73
2019-02-16T21:56:29.784Z,101199.70
2019-02-16T21:59:02.656Z,101198.22
2019-02-16T22:01:35.965Z,101200.65
2019-02-16T22:04:23.767Z,101198.16
2019-02-16T22:07:02.222Z,101201.08
2019-02-16T22:09:35.291Z,101200.55
2019-02-16T22:12:13.621Z,101199.98
2019-02-16T22:14:41.279Z,101208.91
2019-02-16T22:17:08.943Z,101209.42
2019-02-16T22:19:36.602Z,101212.78
2019-02-16T22:22:04.288Z,101208.70
2019-02-16T22:24:31.936Z,101209.29
2019-02-16T22:26:59.591Z,101218.35
2019-02-16T22:29:27.430Z,101218.36
2019-02-16T22:31:55.090Z,101220.82
2019-02-16T22:34:22.749Z,101225.64
2019-02-16T22:36:50.410Z,101231.00
2019-02-16T22:39:18.075Z,101233.55
2019-02-16T22:41:45.731Z,101238.63
2019-02-16T22:44:13.393Z,101240.52
2019-02-16T22:46:41.134Z,101247.88
2019-02-16T22:49:08.895Z,101246.05
2019-02-16T22:51:36.570Z,101248.22
2019-02-16T22:54:04.245Z,101242.67
2019-02-16T22:56:31.898Z,101242.20
2019-02-16T22:58:59.558Z,101242.42
2019-02-16T23:01:27.504Z,101244.55
2019-02-16T23:03:55.176Z,101241.95
2019-02-16T23:06:22.846Z,101242.02
2019-02-16T23:08:50.505Z,101246.95
2019-02-16T23:11:18.169Z,101242.20
2019-02-16T23:13:45.833Z,101246.98
2019-02-16T23:16:13.494Z,101250.56
2019-02-16T23:18:41.156Z,101249.99
2019-02-16T23:21:08.823Z,101254.17
2019-02-16T23:23:36.494Z,101251.63
2019-02-16T23:26:04.170Z,101249.98
2019-02-16T23:28:38.650Z,101246.49
2019-02-16T23:31:01.245Z,101249.52
2019-02-16T23:33:28.906Z,101247.77
2019-02-16T23:35:56.564Z,101248.77
2019-02-16T23:38:24.236Z,101248.94
2019-02-16T23:40:51.897Z,101244.88
2019-02-16T23:43:19.554Z,101246.97
2019-02-16T23:45:47.226Z,101247.69
2019-02-16T23:48:14.877Z,101246.69
2019-02-16T23:50:42.533Z,101242.31
2019-02-16T23:53:10.195Z,101249.28
2019-02-16T23:55:37.859Z,101243.45
2019-02-16T23:58:05.531Z,101248.92
